createdAt,value
2017-11-03T00:00:12.260Z,69.07
2017-11-03T00:02:39.759Z,63.93
2017-11-03T00:05:07.230Z,58.97
2017-11-03T00:07:34.694Z,70.87
2017-11-03T00:10:02.261Z,60.77
2017-11-03T00:12:29.757Z,68.87
2017-11-03T00:14:57.295Z,70.63
2017-11-03T00:17:24.752Z,66.80
2017-11-03T00:19:52.217Z,58.47
2017-11-03T00:22:19.766Z,67.30
2017-11-03T00:24:47.371Z,64.67
2017-11-03T00:27:14.852Z,72.17
2017-11-03T00:29:43.082Z,67.50
2017-11-03T00:32:11.327Z,68.60
2017-11-03T00:34:38.794Z,70.57
2017-11-03T00:37:07.188Z,64.73
2017-11-03T00:39:34.648Z,66.50
2017-11-03T00:42:02.892Z,64.03
2017-11-03T00:44:30.377Z,61.97
2017-11-03T00:46:58.633Z,66.70
2017-11-03T00:49:26.246Z,65.27
2017-11-03T00:51:53.790Z,66.27
2017-11-03T00:54:21.318Z,65.30
2017-11-03T00:56:50.405Z,63.40
2017-11-03T00:59:17.880Z,68.87
2017-11-03T01:01:46.161Z,59.70
2017-11-03T01:04:14.459Z,66.10
2017-11-03T01:06:42.021Z,67.23
2017-11-03T01:09:09.605Z,68.90
2017-11-03T01:11:37.107Z,72.40
2017-11-03T01:14:04.577Z,66.80
2017-11-03T01:16:32.829Z,67.83
2017-11-03T01:19:00.299Z,65.33
2017-11-03T01:21:28.552Z,68.90
2017-11-03T01:23:56.012Z,67.27
2017-11-03T01:26:23.484Z,61.40
2017-11-03T01:28:50.970Z,71.83
2017-11-03T01:31:18.585Z,66.00
2017-11-03T01:33:46.065Z,61.93
2017-11-03T01:36:14.520Z,66.87
2017-11-03T01:38:42.102Z,70.13
2017-11-03T01:41:09.576Z,66.30
2017-11-03T01:43:37.827Z,59.93
2017-11-03T01:46:05.399Z,65.00
2017-11-03T01:48:32.986Z,62.77
2017-11-03T01:51:00.478Z,63.90
2017-11-03T01:53:27.950Z,60.33
2017-11-03T01:55:55.612Z,65.03
2017-11-03T01:58:23.088Z,69.43
2017-11-03T02:00:51.321Z,62.83
2017-11-03T02:03:18.809Z,64.40
2017-11-03T02:05:47.063Z,66.27
2017-11-03T02:08:14.655Z,60.00
2017-11-03T02:10:43.079Z,58.40
2017-11-03T02:13:10.565Z,66.87
2017-11-03T02:15:38.047Z,65.80
2017-11-03T02:18:06.290Z,59.20
2017-11-03T02:20:33.887Z,63.20
2017-11-03T02:23:01.373Z,59.17
2017-11-03T02:25:28.839Z,61.37
2017-11-03T02:27:56.430Z,59.93
2017-11-03T02:30:23.948Z,63.20
2017-11-03T02:32:51.469Z,64.03
2017-11-03T02:35:19.704Z,61.67
2017-11-03T02:37:47.226Z,61.90
2017-11-03T02:40:14.718Z,65.47
2017-11-03T02:42:42.188Z,58.67
2017-11-03T02:45:09.671Z,59.07
2017-11-03T02:47:38.668Z,60.10
2017-11-03T02:50:06.181Z,62.73
2017-11-03T02:52:33.664Z,62.87
2017-11-03T02:55:01.149Z,61.03
2017-11-03T02:57:29.616Z,67.30
2017-11-03T02:59:57.972Z,54.00
2017-11-03T03:02:25.703Z,59.60
2017-11-03T03:04:53.206Z,66.63
2017-11-03T03:07:20.941Z,59.27
2017-11-03T03:09:48.451Z,64.80
2017-11-03T03:12:16.710Z,62.77
2017-11-03T03:14:44.972Z,59.63
2017-11-03T03:17:12.550Z,62.30
2017-11-03T03:19:40.051Z,57.73
2017-11-03T03:22:07.642Z,63.33
2017-11-03T03:24:35.122Z,65.03
2017-11-03T03:27:03.474Z,60.87
2017-11-03T03:29:30.962Z,57.00
2017-11-03T03:31:59.320Z,58.00
2017-11-03T03:34:26.810Z,56.73
2017-11-03T03:36:55.068Z,59.93
2017-11-03T03:39:23.347Z,56.03
2017-11-03T03:41:51.728Z,59.90
2017-11-03T03:44:20.037Z,61.37
2017-11-03T03:46:47.508Z,60.57
2017-11-03T03:49:14.990Z,60.97
2017-11-03T03:51:42.465Z,57.47
2017-11-03T03:54:09.976Z,60.50
2017-11-03T03:56:37.431Z,55.40
2017-11-03T03:59:04.909Z,58.17
2017-11-03T04:01:32.398Z,56.93
2017-11-03T04:03:59.869Z,58.67
2017-11-03T04:06:28.121Z,52.60
2017-11-03T04:08:55.590Z,58.57
2017-11-03T04:11:23.174Z,56.60
2017-11-03T04:13:50.642Z,67.57
2017-11-03T04:16:18.146Z,58.17
2017-11-03T04:18:45.632Z,64.87
2017-11-03T04:21:13.861Z,71.50
2017-11-03T04:23:41.364Z,57.83
2017-11-03T04:26:09.601Z,66.43
2017-11-03T04:28:37.135Z,60.27
2017-11-03T04:31:04.835Z,61.70
2017-11-03T04:33:32.357Z,56.73
2017-11-03T04:36:00.028Z,54.27
2017-11-03T04:38:27.497Z,55.73
2017-11-03T04:40:54.974Z,56.70
2017-11-03T04:43:22.507Z,55.00
2017-11-03T04:45:50.004Z,71.43
2017-11-03T04:48:18.237Z,60.87
2017-11-03T04:50:45.703Z,61.73
2017-11-03T04:53:13.176Z,53.03
2017-11-03T04:55:41.453Z,53.40
2017-11-03T04:58:09.738Z,62.27
2017-11-03T05:00:37.977Z,58.87
2017-11-03T05:03:05.461Z,58.30
2017-11-03T05:05:32.949Z,58.67
2017-11-03T05:08:00.588Z,69.20
2017-11-03T05:10:28.873Z,56.30
2017-11-03T05:12:57.121Z,53.40
2017-11-03T05:15:24.603Z,58.87
2017-11-03T05:17:52.897Z,63.73
2017-11-03T05:20:21.197Z,59.83
2017-11-03T05:22:48.676Z,59.80
2017-11-03T05:25:16.952Z,57.20
2017-11-03T05:27:44.439Z,64.60
2017-11-03T05:30:12.977Z,58.07
2017-11-03T05:32:40.460Z,67.93
2017-11-03T05:35:08.726Z,56.10
2017-11-03T05:37:36.208Z,58.43
2017-11-03T05:40:03.844Z,60.70
2017-11-03T05:42:31.320Z,57.20
2017-11-03T05:44:59.554Z,66.87
2017-11-03T05:47:27.033Z,68.70
2017-11-03T05:49:54.513Z,67.20
2017-11-03T05:52:22.000Z,61.83
2017-11-03T05:54:49.533Z,62.37
2017-11-03T05:57:17.000Z,58.53
2017-11-03T05:59:45.332Z,61.80
2017-11-03T06:02:12.851Z,70.03
2017-11-03T06:04:40.339Z,69.23
2017-11-03T06:07:07.809Z,58.27
2017-11-03T06:09:35.274Z,66.40
2017-11-03T06:12:03.528Z,73.83
2017-11-03T06:14:31.877Z,78.83
2017-11-03T06:16:59.355Z,79.20
2017-11-03T06:19:26.830Z,88.53
2017-11-03T06:21:54.469Z,85.33
2017-11-03T06:24:22.027Z,85.03
2017-11-03T06:26:49.521Z,87.27
2017-11-03T06:29:16.997Z,80.73
2017-11-03T06:31:44.482Z,87.30
2017-11-03T06:34:11.994Z,90.67
2017-11-03T06:36:39.495Z,106.17
2017-11-03T06:39:06.969Z,94.70
2017-11-03T06:41:34.486Z,93.53
2017-11-03T06:44:01.968Z,102.47
2017-11-03T06:46:29.477Z,87.53
2017-11-03T06:48:56.971Z,88.37
2017-11-03T06:51:25.273Z,86.87
2017-11-03T06:53:52.755Z,95.93
2017-11-03T06:56:20.238Z,89.00
2017-11-03T06:58:47.721Z,101.00
2017-11-03T07:01:16.042Z,91.40
2017-11-03T07:03:43.510Z,98.47
2017-11-03T07:06:10.979Z,96.50
2017-11-03T07:08:38.460Z,86.27
2017-11-03T07:11:06.717Z,102.00
2017-11-03T07:13:34.977Z,99.27
2017-11-03T07:16:02.468Z,89.77
2017-11-03T07:18:30.701Z,98.43
2017-11-03T07:20:58.183Z,95.70
2017-11-03T07:23:25.657Z,96.70
2017-11-03T07:25:54.073Z,89.93
2017-11-03T07:28:21.542Z,104.33
2017-11-03T07:30:49.025Z,90.37
2017-11-03T07:33:16.575Z,91.07
2017-11-03T07:35:44.077Z,91.03
2017-11-03T07:38:12.322Z,100.87
2017-11-03T07:40:39.806Z,92.63
2017-11-03T07:43:08.540Z,85.63
2017-11-03T07:45:36.841Z,83.93
2017-11-03T07:48:04.457Z,92.63
2017-11-03T07:50:32.064Z,87.40
2017-11-03T07:53:00.424Z,80.43
2017-11-03T07:55:27.887Z,85.03
2017-11-03T07:57:55.361Z,87.43
2017-11-03T08:00:23.609Z,87.60
2017-11-03T08:02:51.102Z,87.13
2017-11-03T08:05:19.939Z,98.67
2017-11-03T08:07:47.502Z,93.30
2017-11-03T08:10:15.000Z,109.87
2017-11-03T08:12:43.248Z,93.90
2017-11-03T08:15:10.941Z,87.50
2017-11-03T08:17:39.175Z,88.20
2017-11-03T08:20:06.653Z,84.40
2017-11-03T08:22:34.123Z,89.20
2017-11-03T08:25:02.446Z,80.27
2017-11-03T08:27:29.919Z,100.50
2017-11-03T08:29:57.483Z,86.30
2017-11-03T08:32:24.945Z,90.30
2017-11-03T08:34:52.423Z,80.43
2017-11-03T08:37:19.900Z,96.83
2017-11-03T08:39:48.175Z,75.90
2017-11-03T08:42:16.417Z,81.90
2017-11-03T08:44:43.912Z,72.50
2017-11-03T08:47:12.201Z,66.07
2017-11-03T08:49:39.690Z,61.70
2017-11-03T08:52:07.177Z,55.53
2017-11-03T08:54:34.649Z,66.33
2017-11-03T08:57:02.894Z,50.53
2017-11-03T08:59:30.383Z,56.77
2017-11-03T09:01:58.649Z,56.03
2017-11-03T09:04:26.123Z,60.63
2017-11-03T09:06:54.405Z,64.90
2017-11-03T09:09:21.870Z,55.53
2017-11-03T09:11:49.424Z,55.13
2017-11-03T09:14:16.941Z,51.33
2017-11-03T09:16:44.544Z,53.73
2017-11-03T09:19:12.045Z,66.83
2017-11-03T09:21:39.538Z,49.80
2017-11-03T09:24:08.820Z,49.00
2017-11-03T09:26:36.306Z,54.77
2017-11-03T09:29:04.814Z,50.23
2017-11-03T09:31:32.333Z,58.80
2017-11-03T09:33:59.974Z,50.93
2017-11-03T09:36:27.515Z,49.57
2017-11-03T09:38:55.047Z,53.33
2017-11-03T09:41:26.906Z,46.90
2017-11-03T09:43:54.542Z,47.40
2017-11-03T09:46:22.103Z,50.53
2017-11-03T09:48:49.646Z,52.67
2017-11-03T09:51:17.200Z,47.80
2017-11-03T09:53:44.854Z,49.60
2017-11-03T09:56:12.347Z,54.47
2017-11-03T09:58:39.877Z,46.60
2017-11-03T10:01:07.356Z,49.07
2017-11-03T10:03:35.609Z,41.93
2017-11-03T10:06:03.935Z,44.67
2017-11-03T10:08:31.420Z,48.30
2017-11-03T10:10:58.905Z,53.13
2017-11-03T10:13:27.179Z,52.13
2017-11-03T10:15:55.436Z,48.20
2017-11-03T10:21:16.544Z,48.73
2017-11-03T10:23:44.045Z,51.93
2017-11-03T10:26:11.583Z,44.20
2017-11-03T10:28:52.236Z,47.10
2017-11-03T10:31:19.705Z,45.80
2017-11-03T10:33:47.240Z,45.03
2017-11-03T10:36:14.874Z,41.37
2017-11-03T10:38:42.664Z,40.90
2017-11-03T10:41:10.349Z,48.70
2017-11-03T10:43:37.843Z,49.67
2017-11-03T10:46:05.521Z,47.03
2017-11-03T10:48:33.006Z,52.50
2017-11-03T10:51:00.522Z,48.23
2017-11-03T10:53:28.040Z,43.00
2017-11-03T10:55:55.510Z,50.60
2017-11-03T10:58:23.801Z,39.10
2017-11-03T11:00:52.082Z,45.33
2017-11-03T11:03:20.322Z,46.00
2017-11-03T11:05:47.805Z,49.17
2017-11-03T11:08:16.040Z,47.93
2017-11-03T11:10:43.541Z,47.30
2017-11-03T11:13:11.837Z,45.73
2017-11-03T11:15:39.498Z,49.50
2017-11-03T11:18:06.998Z,49.03
2017-11-03T11:20:34.490Z,48.90
2017-11-03T11:23:02.736Z,43.47
2017-11-03T11:25:30.462Z,48.70
2017-11-03T11:27:58.063Z,49.63
2017-11-03T11:30:25.545Z,49.70
2017-11-03T11:32:53.796Z,42.97
2017-11-03T11:35:21.285Z,45.00
2017-11-03T11:37:49.574Z,51.50
2017-11-03T11:40:17.039Z,44.63
2017-11-03T11:42:44.521Z,49.67
2017-11-03T11:45:12.299Z,42.53
2017-11-03T11:47:39.792Z,43.80
2017-11-03T11:50:08.152Z,45.03
2017-11-03T11:52:37.136Z,39.37
2017-11-03T11:55:05.592Z,51.03
2017-11-03T11:57:34.264Z,42.83
2017-11-03T12:00:01.949Z,45.87
2017-11-03T12:02:29.836Z,44.70
2017-11-03T12:04:57.592Z,47.93
2017-11-03T12:07:25.770Z,51.23
2017-11-03T12:09:54.477Z,42.40
2017-11-03T12:12:23.229Z,48.03
2017-11-03T12:14:50.750Z,45.27
2017-11-03T12:17:18.230Z,43.10
2017-11-03T12:19:45.735Z,45.63
2017-11-03T12:22:13.809Z,44.37
2017-11-03T12:24:42.454Z,38.23
2017-11-03T12:27:10.453Z,41.80
2017-11-03T12:29:38.975Z,49.27
2017-11-03T12:32:07.349Z,42.80
2017-11-03T12:34:35.215Z,42.27
2017-11-03T12:37:03.194Z,47.53
2017-11-03T12:39:31.257Z,39.83
2017-11-03T12:41:59.381Z,40.13
2017-11-03T12:44:28.172Z,41.73
2017-11-03T12:46:56.944Z,42.93
2017-11-03T12:49:24.526Z,42.33
2017-11-03T12:51:52.035Z,40.60
2017-11-03T12:54:19.599Z,42.47
2017-11-03T12:56:47.129Z,41.90
2017-11-03T12:59:14.602Z,43.57
2017-11-03T13:01:42.141Z,42.70
2017-11-03T13:04:09.733Z,40.60
2017-11-03T13:06:37.284Z,37.83
2017-11-03T13:09:04.797Z,45.83
2017-11-03T13:11:33.065Z,47.20
2017-11-03T13:14:00.529Z,41.03
2017-11-03T13:16:28.774Z,43.50
2017-11-03T13:18:56.228Z,42.57
2017-11-03T13:21:23.743Z,39.43
2017-11-03T13:23:51.486Z,40.93
2017-11-03T13:26:19.779Z,37.60
2017-11-03T13:28:47.249Z,52.70
2017-11-03T13:31:14.787Z,50.90
2017-11-03T13:33:43.009Z,50.90
2017-11-03T13:36:10.550Z,42.83
2017-11-03T13:38:38.048Z,39.83
2017-11-03T13:41:07.029Z,43.30
2017-11-03T13:43:36.022Z,43.53
2017-11-03T13:46:03.501Z,45.40
2017-11-03T13:48:31.033Z,42.17
2017-11-03T13:50:58.893Z,41.47
2017-11-03T13:53:26.365Z,40.87
2017-11-03T13:55:54.097Z,36.13
2017-11-03T13:58:21.574Z,42.00
2017-11-03T14:00:49.116Z,42.43
2017-11-03T14:03:16.673Z,38.40
2017-11-03T14:05:44.176Z,44.37
2017-11-03T14:08:13.227Z,44.03
2017-11-03T14:10:40.722Z,47.07
2017-11-03T14:13:09.117Z,42.20
2017-11-03T14:15:37.368Z,41.50
2017-11-03T14:18:05.772Z,38.87
2017-11-03T14:20:33.322Z,41.10
2017-11-03T14:23:01.582Z,38.20
2017-11-03T14:25:29.050Z,48.13
2017-11-03T14:27:58.059Z,46.37
2017-11-03T14:30:26.317Z,45.50
2017-11-03T14:32:53.994Z,42.60
2017-11-03T14:35:21.838Z,43.80
2017-11-03T14:37:49.338Z,48.30
2017-11-03T14:40:16.920Z,46.93
2017-11-03T14:42:44.472Z,41.60
2017-11-03T14:45:11.986Z,48.50
2017-11-03T14:47:40.257Z,41.10
2017-11-03T14:50:08.505Z,46.23
2017-11-03T14:52:36.057Z,41.90
2017-11-03T14:55:03.539Z,44.03
2017-11-03T14:57:30.999Z,49.60
2017-11-03T14:59:59.322Z,42.93
2017-11-03T15:02:26.805Z,40.23
2017-11-03T15:04:54.508Z,42.37
2017-11-03T15:07:22.094Z,39.07
2017-11-03T15:09:49.581Z,48.37
2017-11-03T15:12:17.110Z,43.50
2017-11-03T15:14:44.729Z,38.87
2017-11-03T15:17:12.407Z,41.57
2017-11-03T15:19:40.842Z,41.37
2017-11-03T15:22:08.434Z,37.90
2017-11-03T15:24:37.080Z,45.40
2017-11-03T15:27:04.531Z,48.57
2017-11-03T15:29:32.046Z,43.87
2017-11-03T15:32:00.289Z,44.17
2017-11-03T15:34:28.667Z,50.00
2017-11-03T15:36:56.164Z,43.63
2017-11-03T15:39:24.713Z,42.90
2017-11-03T15:41:52.554Z,37.90
2017-11-03T15:44:20.049Z,37.73
2017-11-03T15:46:47.539Z,35.30
2017-11-03T15:49:15.132Z,40.63
2017-11-03T15:51:42.621Z,42.13
2017-11-03T15:54:11.674Z,40.73
2017-11-03T15:56:39.461Z,35.10
2017-11-03T15:59:06.988Z,37.40
2017-11-03T16:01:34.658Z,38.57
2017-11-03T16:04:02.222Z,36.57
2017-11-03T16:06:29.714Z,39.20
2017-11-03T16:08:57.206Z,40.17
2017-11-03T16:11:24.903Z,38.50
2017-11-03T16:13:52.569Z,32.43
2017-11-03T16:16:20.899Z,34.67
2017-11-03T16:18:48.441Z,40.90
2017-11-03T16:21:16.720Z,36.57
2017-11-03T16:23:45.189Z,38.63
2017-11-03T16:26:12.967Z,45.37
2017-11-03T16:28:41.334Z,43.53
2017-11-03T16:31:10.416Z,44.90
2017-11-03T16:33:37.936Z,39.53
2017-11-03T16:36:05.408Z,35.93
2017-11-03T16:38:32.952Z,43.17
2017-11-03T16:41:00.453Z,38.53
2017-11-03T16:43:28.102Z,40.97
2017-11-03T16:45:55.787Z,41.53
2017-11-03T16:48:23.246Z,46.40
2017-11-03T16:50:51.542Z,33.30
2017-11-03T16:53:19.790Z,37.20
2017-11-03T16:55:47.277Z,38.80
2017-11-03T16:58:14.823Z,37.50
2017-11-03T17:00:43.102Z,34.73
2017-11-03T17:06:04.425Z,40.57
2017-11-03T17:08:32.663Z,44.77
2017-11-03T17:11:00.247Z,34.73
2017-11-03T17:13:27.725Z,37.47
2017-11-03T17:15:55.980Z,39.90
2017-11-03T17:18:24.944Z,43.47
2017-11-03T17:20:52.557Z,35.70
2017-11-03T17:23:20.045Z,42.10
2017-11-03T17:25:47.544Z,44.90
2017-11-03T17:28:15.794Z,65.43
2017-11-03T17:30:43.278Z,45.00
2017-11-03T17:33:11.569Z,40.97
2017-11-03T17:35:39.832Z,39.30
2017-11-03T17:38:07.304Z,39.87
2017-11-03T17:40:35.554Z,45.70
2017-11-03T17:43:03.278Z,40.37
2017-11-03T17:45:30.774Z,40.47
2017-11-03T17:47:58.324Z,46.73
2017-11-03T17:50:25.864Z,41.93
2017-11-03T17:52:53.384Z,44.10
2017-11-03T17:55:20.891Z,46.03
2017-11-03T17:57:48.378Z,44.77
2017-11-03T18:03:17.154Z,44.50
2017-11-03T18:05:44.705Z,37.70
2017-11-03T18:08:12.301Z,47.20
2017-11-03T18:10:40.726Z,43.93
2017-11-03T18:13:08.193Z,40.47
2017-11-03T18:15:35.698Z,42.50
2017-11-03T18:18:04.040Z,44.93
2017-11-03T18:20:31.509Z,44.53
2017-11-03T18:22:59.025Z,44.53
2017-11-03T18:25:26.505Z,39.40
2017-11-03T18:27:54.011Z,39.27
2017-11-03T18:30:22.277Z,39.47
2017-11-03T18:32:51.121Z,42.90
2017-11-03T18:35:18.620Z,38.10
2017-11-03T18:37:46.131Z,45.17
2017-11-03T18:40:13.613Z,47.80
2017-11-03T18:42:41.100Z,47.47
2017-11-03T18:45:09.395Z,47.93
2017-11-03T18:47:37.652Z,50.27
2017-11-03T18:50:06.331Z,51.13
2017-11-03T18:52:33.913Z,45.80
2017-11-03T18:55:02.368Z,45.90
2017-11-03T18:57:29.957Z,46.53
2017-11-03T19:00:01.704Z,41.37
2017-11-03T19:02:31.126Z,42.83
2017-11-03T19:04:59.594Z,43.83
2017-11-03T19:07:27.150Z,49.63
2017-11-03T19:09:54.743Z,40.97
2017-11-03T19:21:14.202Z,45.87
2017-11-03T19:23:42.173Z,41.60
2017-11-03T19:26:09.733Z,38.40
2017-11-03T19:28:37.222Z,44.83
2017-11-03T19:31:05.504Z,30.90
2017-11-03T19:33:33.076Z,35.73
2017-11-03T19:36:00.591Z,33.67
2017-11-03T19:38:28.111Z,33.00
2017-11-03T19:40:56.452Z,33.83
2017-11-03T19:43:24.695Z,35.87
2017-11-03T19:45:52.285Z,32.10
2017-11-03T19:48:20.622Z,39.97
2017-11-03T19:50:48.553Z,32.20
2017-11-03T19:53:16.025Z,32.60
2017-11-03T19:55:43.496Z,27.27
2017-11-03T19:58:10.981Z,28.17
2017-11-03T20:00:38.449Z,28.80
2017-11-03T20:03:06.727Z,26.20
2017-11-03T20:05:35.245Z,27.90
2017-11-03T20:08:03.743Z,30.40
2017-11-03T20:10:31.217Z,33.60
2017-11-03T20:12:58.847Z,33.60
2017-11-03T20:15:27.290Z,35.93
2017-11-03T20:17:55.658Z,29.07
2017-11-03T20:20:23.197Z,32.23
2017-11-03T20:22:52.573Z,33.67
2017-11-03T20:25:20.191Z,43.73
2017-11-03T20:27:48.434Z,35.57
2017-11-03T20:30:16.219Z,23.57
2017-11-03T20:32:43.810Z,33.30
2017-11-03T20:35:11.573Z,29.83
2017-11-03T20:37:39.186Z,29.53
2017-11-03T20:40:07.170Z,36.17
2017-11-03T20:42:34.985Z,48.57
2017-11-03T20:45:02.453Z,57.40
2017-11-03T20:47:30.098Z,51.40
2017-11-03T20:49:57.577Z,45.67
2017-11-03T20:52:40.722Z,63.07
2017-11-03T20:55:08.946Z,55.03
2017-11-03T21:00:47.661Z,28.20
2017-11-03T21:06:29.844Z,26.30
2017-11-03T21:09:08.871Z,21.53
2017-11-03T21:14:43.124Z,25.07
2017-11-03T21:17:10.690Z,26.77
2017-11-03T21:19:38.975Z,26.67
2017-11-03T21:22:07.231Z,23.60
2017-11-03T21:24:34.942Z,23.57
2017-11-03T21:27:02.538Z,25.67
2017-11-03T21:29:30.284Z,26.13
2017-11-03T21:31:58.033Z,25.47
2017-11-03T21:34:26.336Z,23.70
2017-11-03T21:36:59.786Z,26.17
2017-11-03T21:39:27.717Z,22.53
2017-11-03T21:41:55.272Z,21.20
2017-11-03T21:44:22.838Z,20.50
2017-11-03T21:46:52.005Z,23.10
2017-11-03T21:49:19.506Z,21.37
2017-11-03T21:51:47.798Z,24.00
2017-11-03T21:54:15.295Z,20.50
2017-11-03T21:56:42.789Z,19.37
2017-11-03T21:59:10.404Z,20.63
2017-11-03T22:01:37.921Z,21.47
2017-11-03T22:04:05.438Z,23.70
2017-11-03T22:06:33.025Z,19.13
2017-11-03T22:09:00.778Z,19.50
2017-11-03T22:11:28.583Z,19.70
2017-11-03T22:13:56.206Z,21.00
2017-11-03T22:16:24.706Z,17.47
2017-11-03T22:18:52.757Z,22.93
2017-11-03T22:21:20.285Z,21.90
2017-11-03T22:23:48.049Z,24.53
2017-11-03T22:26:15.526Z,20.13
2017-11-03T22:28:43.217Z,21.50
2017-11-03T22:31:11.473Z,26.47
2017-11-03T22:33:39.815Z,22.10
2017-11-03T22:36:07.385Z,28.50
2017-11-03T22:38:34.980Z,24.87
2017-11-03T22:41:03.239Z,25.37
2017-11-03T22:43:31.125Z,23.80
2017-11-03T22:45:59.413Z,27.00
2017-11-03T22:48:27.675Z,25.10
2017-11-03T22:50:55.935Z,23.20
2017-11-03T22:53:23.817Z,26.33
2017-11-03T22:55:52.068Z,23.90
2017-11-03T22:58:19.599Z,25.00
2017-11-03T23:00:47.089Z,23.37
2017-11-03T23:03:14.563Z,22.10
2017-11-03T23:05:42.926Z,30.53
2017-11-03T23:08:12.596Z,24.07
2017-11-03T23:10:40.078Z,30.70
2017-11-03T23:13:07.564Z,21.20
2017-11-03T23:15:35.849Z,27.00
2017-11-03T23:18:04.099Z,34.30
2017-11-03T23:20:32.236Z,25.90
2017-11-03T23:22:59.728Z,27.00
2017-11-03T23:25:27.201Z,20.37
2017-11-03T23:27:55.434Z,33.83
2017-11-03T23:30:22.919Z,23.13
2017-11-03T23:32:50.394Z,27.30
2017-11-03T23:35:18.819Z,23.67
2017-11-03T23:37:46.282Z,23.90
2017-11-03T23:40:13.829Z,26.40
2017-11-03T23:42:41.309Z,26.90
2017-11-03T23:45:09.532Z,26.10
2017-11-03T23:47:38.402Z,27.63
2017-11-03T23:50:05.870Z,23.87
2017-11-03T23:52:34.291Z,27.83
2017-11-03T23:55:11.345Z,29.97
2017-11-03T23:57:39.153Z,29.10
